Flight Briefing for CPX953

Departure Arrival
Miami International Airport (KMIA)
Click to view FAA NOTAMS
Patrick Air Force Base (KCOF)
Click to view FAA NOTAMS
Departure Time Arrival Time
N/A N/A
Aircraft Distance
B757-200SF 147nm
Departure METAR Arrival METAR
KMIA 252353Z 12005KT 10SM FEW025 24/19 A3003 RMK AO2 SLP168 60042 T02390194 10272 20228 55000 KCOF 252356Z AUTO 16009KT 10SM CLR 23/19 A3001 RMK AO2 SLP167 T02260191 10257 20226 55005 $
Suggested Route
HEDLY2 HEDLY LBV COSTR3


View recent IFR Routes data
Notes
EMPTY | NON-REVENUE REPOSITIONING LEG | VFR DEPARTURE RCMD IF WX PERMITS

Charts and Procedures

Charts for KMIA
No chart available
Charts for KCOF
No chart available

Windy.com Weather Map